createdAt,value
2023-01-05T00:00:02.156Z,28.88
2023-01-05T00:02:40.203Z,26.85
2023-01-05T00:05:08.172Z,27.42
2023-01-05T00:07:35.756Z,26.55
2023-01-05T00:10:03.597Z,26.98
2023-01-05T00:12:49.462Z,26.58
2023-01-05T00:18:21.415Z,27.83
2023-01-05T00:21:07.921Z,27.85
2023-01-05T00:23:35.619Z,28.42
2023-01-05T00:26:03.203Z,27.88
2023-01-05T00:28:30.781Z,26.38
2023-01-05T00:30:58.316Z,27.55
2023-01-05T00:33:25.854Z,26.63
2023-01-05T00:35:53.457Z,28.45
2023-01-05T00:38:21.161Z,28.15
2023-01-05T00:40:49.932Z,31.38
2023-01-05T00:43:17.495Z,31.65
2023-01-05T00:45:45.204Z,33.85
2023-01-05T00:48:12.890Z,32.35
2023-01-05T00:50:40.447Z,30.15
2023-01-05T00:53:08.057Z,30.98
2023-01-05T00:55:35.668Z,33.42
2023-01-05T00:58:03.222Z,31.52
2023-01-05T01:00:30.850Z,30.80
2023-01-05T01:02:58.429Z,29.88
2023-01-05T01:05:26.005Z,28.98
2023-01-05T01:07:53.704Z,30.52
2023-01-05T01:10:21.313Z,31.77
2023-01-05T01:12:48.820Z,31.98
2023-01-05T01:15:16.469Z,28.27
2023-01-05T01:17:44.128Z,27.95
2023-01-05T01:20:11.751Z,29.27
2023-01-05T01:22:39.351Z,27.85
2023-01-05T01:25:08.788Z,27.98
2023-01-05T01:27:36.450Z,29.48
2023-01-05T01:30:04.359Z,29.55
2023-01-05T01:32:32.113Z,29.10
2023-01-05T01:34:59.660Z,29.33
2023-01-05T01:37:27.536Z,28.10
2023-01-05T01:39:57.010Z,29.83
2023-01-05T01:42:25.083Z,29.33
2023-01-05T01:44:55.461Z,28.48
2023-01-05T01:47:38.635Z,28.80
2023-01-05T01:50:22.382Z,29.60
2023-01-05T01:52:52.631Z,28.65
2023-01-05T01:55:21.006Z,28.70
2023-01-05T01:57:50.733Z,29.00
2023-01-05T02:00:18.997Z,29.50
2023-01-05T02:02:49.223Z,31.05
2023-01-05T02:05:26.486Z,28.25
2023-01-05T02:07:54.442Z,28.77
2023-01-05T02:10:51.071Z,29.05
2023-01-05T02:13:32.842Z,29.13
2023-01-05T02:16:24.200Z,27.65
2023-01-05T02:19:28.524Z,28.15
2023-01-05T02:22:20.695Z,27.80
2023-01-05T02:25:00.221Z,27.73
2023-01-05T02:27:51.559Z,28.90
2023-01-05T02:30:59.748Z,28.27
2023-01-05T02:33:56.932Z,28.60
2023-01-05T02:36:54.832Z,27.08
2023-01-05T02:39:26.627Z,28.27
2023-01-05T02:42:17.890Z,27.77
2023-01-05T02:44:45.653Z,28.33
2023-01-05T02:47:25.230Z,28.75
2023-01-05T02:50:01.406Z,26.85
2023-01-05T02:52:40.845Z,27.80
2023-01-05T02:55:13.869Z,26.58
2023-01-05T02:58:07.847Z,26.77
2023-01-05T03:00:43.129Z,27.38
2023-01-05T03:03:21.170Z,26.13
2023-01-05T03:06:27.103Z,26.48
2023-01-05T03:09:00.989Z,26.95
2023-01-05T03:12:16.058Z,25.85
2023-01-05T03:14:52.974Z,26.27
2023-01-05T03:17:40.459Z,25.27
2023-01-05T03:20:09.776Z,26.10
2023-01-05T03:22:58.183Z,26.83
2023-01-05T03:25:46.561Z,27.00
2023-01-05T03:28:39.748Z,26.27
2023-01-05T03:31:40.409Z,27.20
2023-01-05T03:34:35.463Z,26.60
2023-01-05T03:37:08.152Z,24.88
2023-01-05T03:39:40.639Z,26.60
2023-01-05T03:42:10.857Z,26.98
2023-01-05T03:44:40.697Z,26.42
2023-01-05T03:47:13.295Z,25.83
2023-01-05T03:49:41.094Z,25.63
2023-01-05T03:52:09.823Z,25.85
2023-01-05T03:54:40.848Z,25.88
2023-01-05T03:57:08.840Z,26.95
2023-01-05T03:59:36.438Z,26.90
2023-01-05T04:02:04.944Z,29.33
2023-01-05T04:04:33.417Z,27.02
2023-01-05T04:07:03.332Z,28.73
2023-01-05T04:09:34.065Z,26.98
2023-01-05T04:12:02.417Z,25.77
2023-01-05T04:14:34.416Z,27.83
2023-01-05T04:17:01.992Z,26.15
2023-01-05T04:19:29.575Z,27.42
2023-01-05T04:21:57.622Z,27.35
2023-01-05T04:24:26.177Z,27.48
2023-01-05T04:26:53.755Z,27.60
2023-01-05T04:29:25.308Z,27.42
2023-01-05T04:31:55.668Z,27.73
2023-01-05T04:34:23.303Z,26.60
2023-01-05T04:36:54.611Z,28.55
2023-01-05T04:39:23.270Z,29.83
2023-01-05T04:41:51.538Z,29.15
2023-01-05T04:44:20.977Z,28.25
2023-01-05T04:46:50.013Z,29.38
2023-01-05T04:49:18.632Z,25.98
2023-01-05T04:51:49.441Z,25.95
2023-01-05T04:54:17.343Z,25.88
2023-01-05T04:57:04.380Z,26.48
2023-01-05T04:59:32.083Z,26.55
2023-01-05T05:02:05.141Z,25.98
2023-01-05T05:04:34.341Z,25.48
2023-01-05T05:07:04.143Z,26.30
2023-01-05T05:09:33.373Z,27.00
2023-01-05T05:12:01.311Z,21.63
2023-01-05T05:14:29.103Z,19.05
2023-01-05T05:16:59.857Z,17.85
2023-01-05T05:19:29.880Z,17.90
2023-01-05T05:21:59.262Z,17.15
2023-01-05T05:24:27.765Z,15.65
2023-01-05T05:26:57.275Z,15.98
2023-01-05T05:29:25.212Z,16.67
2023-01-05T05:31:52.831Z,17.10
2023-01-05T05:34:20.468Z,19.17
2023-01-05T05:36:48.171Z,18.83
2023-01-05T05:39:16.474Z,19.67
2023-01-05T05:41:44.002Z,19.02
2023-01-05T05:44:11.586Z,18.40
2023-01-05T05:46:39.257Z,18.95
2023-01-05T05:49:08.767Z,18.35
2023-01-05T05:51:36.386Z,19.10
2023-01-05T05:54:04.107Z,21.48
2023-01-05T05:56:31.656Z,23.55
2023-01-05T05:59:01.575Z,26.30
2023-01-05T06:01:29.650Z,25.42
2023-01-05T06:03:57.457Z,23.90
2023-01-05T06:06:25.151Z,22.55
2023-01-05T06:08:52.699Z,22.30
2023-01-05T06:11:20.283Z,21.50
2023-01-05T06:13:48.947Z,20.40
2023-01-05T06:16:16.737Z,19.80
2023-01-05T06:18:44.407Z,20.90
2023-01-05T06:21:12.031Z,20.15
2023-01-05T06:23:39.524Z,21.20
2023-01-05T06:26:07.233Z,20.70
2023-01-05T06:28:34.818Z,20.35
2023-01-05T06:31:02.414Z,20.75
2023-01-05T06:33:30.022Z,20.85
2023-01-05T06:35:58.961Z,21.15
2023-01-05T06:38:27.920Z,22.17
2023-01-05T06:40:55.628Z,22.40
2023-01-05T06:43:23.189Z,23.33
2023-01-05T06:45:50.929Z,22.67
2023-01-05T06:48:19.015Z,22.55
2023-01-05T06:50:46.574Z,22.17
2023-01-05T06:53:15.684Z,21.08
2023-01-05T06:55:44.720Z,23.05
2023-01-05T06:58:12.291Z,22.15
2023-01-05T07:00:40.046Z,21.55
2023-01-05T07:03:07.884Z,23.00
2023-01-05T07:05:35.611Z,23.02
2023-01-05T07:08:03.118Z,23.52
2023-01-05T07:10:30.758Z,21.75
2023-01-05T07:12:58.336Z,22.85
2023-01-05T07:15:26.055Z,22.05
2023-01-05T07:17:53.735Z,22.08
2023-01-05T07:20:21.269Z,21.23
2023-01-05T07:22:48.856Z,21.35
2023-01-05T07:25:16.392Z,21.13
2023-01-05T07:27:44.028Z,21.98
2023-01-05T07:30:12.257Z,21.35
2023-01-05T07:32:39.889Z,20.63
2023-01-05T07:35:07.812Z,20.27
2023-01-05T07:37:35.377Z,20.65
2023-01-05T07:40:03.161Z,20.08
2023-01-05T07:42:30.840Z,19.30
2023-01-05T07:44:58.374Z,19.70
2023-01-05T07:47:25.831Z,18.30
2023-01-05T07:49:53.372Z,19.20
2023-01-05T07:52:20.916Z,19.08
2023-01-05T07:54:48.674Z,18.30
2023-01-05T07:57:16.285Z,17.73
2023-01-05T07:59:43.737Z,17.05
2023-01-05T08:02:11.489Z,17.63
2023-01-05T08:04:39.282Z,16.75
2023-01-05T08:07:11.566Z,17.25
2023-01-05T08:09:57.521Z,17.77
2023-01-05T08:12:25.093Z,17.65
2023-01-05T08:14:52.652Z,17.35
2023-01-05T08:17:20.212Z,18.05
2023-01-05T08:19:47.924Z,17.90
2023-01-05T08:22:15.435Z,17.00
2023-01-05T08:24:43.027Z,18.08
2023-01-05T08:27:10.701Z,16.73
2023-01-05T08:29:38.244Z,17.02
2023-01-05T08:32:06.019Z,17.15
2023-01-05T08:34:35.089Z,16.52
2023-01-05T08:37:02.861Z,18.13
2023-01-05T08:39:30.341Z,18.90
2023-01-05T08:42:02.524Z,19.27
2023-01-05T08:44:30.755Z,20.20
2023-01-05T08:46:58.336Z,19.23
2023-01-05T08:49:25.870Z,20.67
2023-01-05T08:51:53.357Z,18.75
2023-01-05T08:54:20.952Z,19.80
2023-01-05T08:56:50.740Z,18.80
2023-01-05T08:59:18.880Z,19.25
2023-01-05T09:01:46.618Z,19.23
2023-01-05T09:04:14.273Z,19.48
2023-01-05T09:06:41.764Z,19.20
2023-01-05T09:09:09.278Z,19.98
2023-01-05T09:11:36.893Z,18.73
2023-01-05T09:14:04.363Z,18.40
2023-01-05T09:17:06.482Z,18.85
2023-01-05T09:19:23.057Z,18.08
2023-01-05T09:21:52.223Z,18.00
2023-01-05T09:24:19.959Z,18.67
2023-01-05T09:26:47.788Z,18.48
2023-01-05T09:29:15.423Z,18.35
2023-01-05T09:31:43.731Z,18.20
2023-01-05T09:34:11.546Z,18.83
2023-01-05T09:36:39.145Z,20.60
2023-01-05T09:39:06.747Z,21.73
2023-01-05T09:41:41.887Z,21.95
2023-01-05T09:44:21.989Z,20.55
2023-01-05T09:46:51.862Z,21.48
2023-01-05T09:49:23.346Z,23.75
2023-01-05T09:51:56.138Z,24.23
2023-01-05T09:54:27.960Z,25.75
2023-01-05T09:57:09.201Z,29.17
2023-01-05T09:59:41.414Z,29.02
2023-01-05T10:02:37.970Z,28.05
2023-01-05T10:05:06.863Z,28.02
2023-01-05T10:07:45.808Z,28.85
2023-01-05T10:10:43.529Z,29.70
2023-01-05T10:13:25.090Z,28.08
2023-01-05T10:15:54.905Z,26.33
2023-01-05T10:18:25.600Z,26.30
2023-01-05T10:21:10.931Z,25.77
2023-01-05T10:23:46.626Z,25.35
2023-01-05T10:26:51.088Z,25.15
2023-01-05T10:29:27.423Z,23.98
2023-01-05T10:34:49.281Z,24.90
2023-01-05T10:37:34.485Z,23.55
2023-01-05T10:40:29.651Z,23.33
2023-01-05T10:43:18.795Z,23.52
2023-01-05T10:46:19.829Z,24.05
2023-01-05T10:48:35.706Z,23.95
2023-01-05T10:51:04.769Z,25.10
2023-01-05T10:53:39.268Z,24.45
2023-01-05T10:56:10.749Z,24.40
2023-01-05T10:58:41.680Z,25.10
2023-01-05T11:01:19.568Z,24.73
2023-01-05T11:06:37.789Z,24.17
2023-01-05T11:09:22.621Z,24.35
2023-01-05T11:12:03.383Z,22.10
2023-01-05T11:14:36.024Z,21.73
2023-01-05T11:17:06.406Z,23.48
2023-01-05T11:19:41.440Z,23.10
2023-01-05T11:22:35.926Z,22.60
2023-01-05T11:25:32.378Z,23.85
2023-01-05T11:28:11.890Z,23.52
2023-01-05T11:30:57.687Z,23.30
2023-01-05T11:35:58.750Z,22.08
2023-01-05T11:38:31.221Z,22.83
2023-01-05T11:41:00.828Z,23.25
2023-01-05T11:43:31.776Z,23.58
2023-01-05T11:46:08.020Z,25.20
2023-01-05T11:48:36.327Z,25.23
2023-01-05T11:51:04.025Z,22.75
2023-01-05T11:53:34.333Z,22.50
2023-01-05T11:56:06.454Z,23.08
2023-01-05T11:58:44.370Z,22.90
2023-01-05T12:01:25.602Z,22.45
2023-01-05T12:04:17.656Z,22.95
2023-01-05T12:07:06.651Z,22.42
2023-01-05T12:12:06.321Z,20.90
2023-01-05T12:14:55.932Z,22.33
2023-01-05T12:17:37.259Z,21.90
2023-01-05T12:20:32.342Z,22.48
2023-01-05T12:23:19.366Z,21.30
2023-01-05T12:26:13.504Z,22.50
2023-01-05T12:28:57.938Z,22.27
2023-01-05T12:35:12.527Z,22.15
2023-01-05T12:37:49.106Z,22.77
2023-01-05T12:40:37.272Z,21.15
2023-01-05T12:43:09.593Z,22.15
2023-01-05T12:45:37.069Z,22.15
2023-01-05T12:48:18.736Z,22.08
2023-01-05T12:51:12.243Z,22.48
2023-01-05T12:53:44.680Z,22.23
2023-01-05T12:56:29.670Z,21.83
2023-01-05T12:59:29.240Z,22.03
2023-01-05T13:02:39.393Z,22.25
2023-01-05T13:05:22.358Z,21.65
2023-01-05T13:07:59.045Z,21.65
2023-01-05T13:10:33.057Z,22.60
2023-01-05T13:13:06.056Z,21.10
2023-01-05T13:15:42.137Z,22.48
2023-01-05T13:18:17.990Z,21.65
2023-01-05T13:20:55.867Z,22.40
2023-01-05T13:23:29.832Z,21.38
2023-01-05T13:26:06.402Z,21.02
2023-01-05T13:28:35.055Z,20.25
2023-01-05T13:31:21.025Z,19.95
2023-01-05T13:36:57.903Z,20.98
2023-01-05T13:40:09.755Z,21.27
2023-01-05T13:43:19.376Z,20.48
2023-01-05T13:45:56.049Z,19.20
2023-01-05T13:49:04.128Z,21.10
2023-01-05T13:51:53.250Z,20.30
2023-01-05T13:54:59.771Z,20.95
2023-01-05T13:57:38.506Z,20.63
2023-01-05T14:00:29.229Z,21.25
2023-01-05T14:03:08.317Z,21.25
2023-01-05T14:05:52.820Z,21.25
2023-01-05T14:08:28.144Z,20.38
2023-01-05T14:11:09.377Z,20.35
2023-01-05T14:14:24.525Z,21.70
2023-01-05T14:16:53.188Z,21.70
2023-01-05T14:22:18.826Z,22.02
2023-01-05T14:24:49.441Z,23.65
2023-01-05T14:27:21.593Z,22.88
2023-01-05T14:32:34.532Z,23.02
2023-01-05T14:35:37.226Z,25.20
2023-01-05T14:38:16.423Z,26.02
2023-01-05T14:40:56.299Z,24.70
2023-01-05T14:43:35.147Z,24.77
2023-01-05T14:46:11.927Z,24.38
2023-01-05T14:48:43.115Z,23.38
2023-01-05T14:51:24.071Z,23.90
2023-01-05T14:53:53.532Z,25.27
2023-01-05T14:56:26.768Z,24.35
2023-01-05T14:59:00.032Z,24.83
2023-01-05T15:01:35.867Z,24.80
2023-01-05T15:04:03.417Z,25.25
2023-01-05T15:06:45.912Z,24.77
2023-01-05T15:09:48.537Z,25.80
2023-01-05T15:12:40.002Z,26.13
2023-01-05T15:15:27.734Z,25.50
2023-01-05T15:18:13.864Z,26.10
2023-01-05T15:21:14.468Z,24.73
2023-01-05T15:23:59.965Z,25.60
2023-01-05T15:26:48.872Z,24.27
2023-01-05T15:29:24.052Z,25.77
2023-01-05T15:31:59.157Z,25.90
2023-01-05T15:34:38.325Z,27.00
2023-01-05T15:37:25.784Z,26.52
2023-01-05T15:39:55.375Z,24.98
2023-01-05T15:42:29.154Z,26.10
2023-01-05T15:44:57.506Z,25.50
2023-01-05T15:47:27.994Z,26.45
2023-01-05T15:50:00.636Z,27.85
2023-01-05T15:52:36.268Z,25.45
2023-01-05T15:55:11.571Z,25.73
2023-01-05T15:57:38.999Z,26.35
2023-01-05T16:00:22.273Z,25.73
2023-01-05T16:02:50.560Z,25.55
2023-01-05T16:05:30.345Z,24.85
2023-01-05T16:08:01.745Z,27.00
2023-01-05T16:10:37.395Z,27.77
2023-01-05T16:13:25.034Z,26.23
2023-01-05T16:15:56.224Z,26.90
2023-01-05T16:18:31.592Z,27.27
2023-01-05T16:21:05.102Z,26.63
2023-01-05T16:24:03.546Z,26.52
2023-01-05T16:26:35.046Z,24.83
2023-01-05T16:29:31.494Z,26.67
2023-01-05T16:31:59.523Z,27.17
2023-01-05T16:34:31.520Z,25.77
2023-01-05T16:37:01.064Z,26.25
2023-01-05T16:39:35.105Z,25.60
2023-01-05T16:42:39.571Z,25.52
2023-01-05T16:45:18.734Z,25.42
2023-01-05T16:47:46.631Z,25.13
2023-01-05T16:50:19.821Z,27.70
2023-01-05T16:52:55.620Z,27.27
2023-01-05T16:55:35.709Z,25.83
2023-01-05T16:58:25.073Z,26.38
2023-01-05T17:00:52.501Z,27.00
2023-01-05T17:03:30.327Z,26.42
2023-01-05T17:06:00.021Z,25.35
2023-01-05T17:08:31.761Z,28.42
2023-01-05T17:11:00.717Z,27.83
2023-01-05T17:13:42.433Z,27.40
2023-01-05T17:16:14.502Z,26.73
2023-01-05T17:18:41.984Z,29.20
2023-01-05T17:21:15.658Z,29.38
2023-01-05T17:23:47.329Z,29.08
2023-01-05T17:26:25.116Z,31.20
2023-01-05T17:28:57.146Z,30.10
2023-01-05T17:31:24.934Z,30.50
2023-01-05T17:33:52.338Z,29.95
2023-01-05T17:36:25.021Z,29.17
2023-01-05T17:38:52.685Z,27.70
2023-01-05T17:41:20.171Z,28.02
2023-01-05T17:43:48.234Z,30.02
2023-01-05T17:46:21.560Z,28.30
2023-01-05T17:48:49.388Z,28.40
2023-01-05T17:51:16.775Z,30.70
2023-01-05T17:53:44.199Z,29.30
2023-01-05T17:56:11.622Z,29.48
2023-01-05T17:58:39.292Z,29.67
2023-01-05T18:01:07.146Z,29.02
2023-01-05T18:03:34.758Z,29.48
2023-01-05T18:06:02.791Z,30.92
2023-01-05T18:08:30.365Z,30.10
2023-01-05T18:11:05.473Z,29.77
2023-01-05T18:13:34.147Z,30.95
2023-01-05T18:16:07.845Z,31.58
2023-01-05T18:18:35.425Z,30.65
2023-01-05T18:21:04.295Z,31.77
2023-01-05T18:23:32.123Z,30.60
2023-01-05T18:26:07.442Z,32.00
2023-01-05T18:28:36.003Z,33.75
2023-01-05T18:31:14.148Z,33.15
2023-01-05T18:33:42.540Z,32.30
2023-01-05T18:36:15.723Z,34.63
2023-01-05T18:38:43.420Z,32.70
2023-01-05T18:41:11.715Z,33.95
2023-01-05T18:43:39.629Z,32.30
2023-01-05T18:46:07.290Z,33.20
2023-01-05T18:48:34.911Z,33.30
2023-01-05T18:51:05.889Z,32.60
2023-01-05T18:53:33.622Z,32.08
2023-01-05T18:56:05.744Z,32.40
2023-01-05T18:58:33.515Z,32.92
2023-01-05T19:01:06.924Z,33.33
2023-01-05T19:03:34.766Z,33.83
2023-01-05T19:06:16.049Z,32.70
2023-01-05T19:08:44.757Z,33.72
2023-01-05T19:11:21.335Z,32.72
2023-01-05T19:13:50.338Z,33.97
2023-01-05T19:16:19.902Z,33.15
2023-01-05T19:18:53.935Z,33.45
2023-01-05T19:21:22.749Z,32.58
2023-01-05T19:23:55.526Z,33.33
2023-01-05T19:26:24.333Z,32.97
2023-01-05T19:29:17.905Z,33.72
2023-01-05T19:31:47.027Z,33.97
2023-01-05T19:34:18.511Z,33.72
2023-01-05T19:36:47.651Z,34.83
2023-01-05T19:39:17.765Z,32.63
2023-01-05T19:41:47.104Z,33.83
2023-01-05T19:44:17.301Z,34.03
2023-01-05T19:46:49.234Z,35.00
2023-01-05T19:49:27.384Z,33.85
2023-01-05T19:51:55.493Z,34.38
2023-01-05T19:54:25.358Z,34.88
2023-01-05T19:56:54.703Z,33.78
2023-01-05T19:59:31.925Z,34.53
2023-01-05T20:02:01.605Z,34.78
2023-01-05T20:04:30.022Z,34.63
2023-01-05T20:06:58.299Z,33.67
2023-01-05T20:09:26.470Z,34.75
2023-01-05T20:11:59.557Z,33.45
2023-01-05T20:14:34.373Z,34.40
2023-01-05T20:17:10.327Z,34.42
2023-01-05T20:19:39.234Z,33.28
2023-01-05T20:22:08.659Z,34.00
2023-01-05T20:24:37.350Z,33.03
2023-01-05T20:27:10.053Z,33.15
2023-01-05T20:29:37.929Z,35.00
2023-01-05T20:32:10.935Z,35.08
2023-01-05T20:34:40.091Z,34.92
2023-01-05T20:37:09.973Z,34.90
2023-01-05T20:39:39.094Z,32.95
2023-01-05T20:42:06.779Z,34.60
2023-01-05T20:44:36.787Z,32.92
2023-01-05T20:47:06.823Z,33.00
2023-01-05T20:49:36.265Z,35.15
2023-01-05T20:52:05.167Z,34.80
2023-01-05T20:54:33.198Z,34.45
2023-01-05T20:57:00.850Z,34.17
2023-01-05T20:59:31.237Z,35.33
2023-01-05T21:02:00.151Z,34.80
2023-01-05T21:04:30.115Z,34.22
2023-01-05T21:07:01.128Z,33.45
2023-01-05T21:09:30.248Z,34.53
2023-01-05T21:12:00.096Z,35.45
2023-01-05T21:14:27.722Z,35.15
2023-01-05T21:16:55.734Z,36.30
2023-01-05T21:19:24.286Z,35.65
2023-01-05T21:21:54.634Z,36.30
2023-01-05T21:24:22.917Z,34.75
2023-01-05T21:26:50.983Z,35.22
2023-01-05T21:29:22.605Z,41.58
2023-01-05T21:31:51.506Z,36.60
2023-01-05T21:34:19.295Z,35.35
2023-01-05T21:36:49.037Z,34.63
2023-01-05T21:39:21.611Z,34.72
2023-01-05T21:42:09.899Z,35.25
2023-01-05T21:44:38.028Z,34.40
2023-01-05T21:47:06.843Z,35.20
2023-01-05T21:49:35.755Z,34.75
2023-01-05T21:52:23.202Z,36.22
2023-01-05T21:55:09.584Z,35.22
2023-01-05T21:57:37.230Z,37.30
2023-01-05T22:00:06.096Z,40.90
2023-01-05T22:02:36.794Z,38.13
2023-01-05T22:05:04.807Z,36.47
2023-01-05T22:07:32.392Z,37.92
2023-01-05T22:10:00.049Z,39.58
2023-01-05T22:12:27.848Z,38.00
2023-01-05T22:14:55.656Z,38.10
2023-01-05T22:17:23.290Z,34.30
2023-01-05T22:19:53.426Z,33.45
2023-01-05T22:22:22.207Z,34.85
2023-01-05T22:24:49.935Z,34.78
2023-01-05T22:27:17.557Z,34.28
2023-01-05T22:29:45.016Z,33.40
2023-01-05T22:32:12.548Z,34.95
2023-01-05T22:34:43.903Z,33.08
2023-01-05T22:37:11.685Z,33.30
2023-01-05T22:39:39.258Z,34.17
2023-01-05T22:42:07.055Z,33.78
2023-01-05T22:44:34.771Z,33.08
2023-01-05T22:47:02.384Z,34.42
2023-01-05T22:49:30.744Z,34.65
2023-01-05T22:51:58.215Z,34.15
2023-01-05T22:54:25.994Z,34.30
2023-01-05T22:56:53.571Z,34.10
2023-01-05T22:59:21.796Z,34.05
2023-01-05T23:01:49.937Z,35.13
2023-01-05T23:04:17.597Z,33.97
2023-01-05T23:06:45.097Z,32.92
2023-01-05T23:09:15.272Z,33.95
2023-01-05T23:11:46.368Z,32.92
2023-01-05T23:14:15.153Z,34.58
2023-01-05T23:16:42.795Z,35.28
2023-01-05T23:19:12.158Z,33.40
2023-01-05T23:21:39.700Z,33.28
2023-01-05T23:24:07.700Z,33.85
2023-01-05T23:26:35.252Z,33.03
2023-01-05T23:29:11.894Z,34.35
2023-01-05T23:31:39.383Z,34.97
2023-01-05T23:34:06.910Z,34.72
2023-01-05T23:36:34.394Z,35.58
2023-01-05T23:39:02.041Z,35.08
2023-01-05T23:41:29.672Z,35.28
2023-01-05T23:43:57.250Z,32.67
2023-01-05T23:46:24.952Z,34.67
2023-01-05T23:48:53.004Z,33.63
2023-01-05T23:51:21.069Z,33.67
2023-01-05T23:53:51.215Z,34.53
2023-01-05T23:56:30.752Z,34.08
2023-01-05T23:59:05.611Z,36.42
